Terminal Aerodrome Forecast
Issued by NWS Blacksburg, VA

Current Version | Previous Version | Graphics & Text | Print | Product List | Glossary On
Versions: 1 2 3 4 5 6 7 8 9 10 11 12 13 14 15 16 17 18
000
FTUS41 KRNK 181726 CCA
TAFBLF
TAF COR
KBLF 181726Z 1818/1918 29011KT 4SM -SHRA VCTS SCT008 BKN030CB
      TEMPO 1818/1820 2SM SHRA OVC015
     FM182000 29008KT P6SM VCSH SCT020 BKN040
     FM190000 29007KT P6SM SCT050
     FM190800 25005KT 3SM BR BKN005
     FM191400 VRB03KT P6SM FEW250=

USA.gov is the U.S. government's official web portal to all federal, state and local government web resources and services.